| time (UTC) | temp F | wind direction | speed MPH | gust MPH | rain 1hr in | rain 24hr in | rain mn in | humidity % | barometer mb |
| 20260502130513 | 74 | 113 | 1.0 | 6.0 | 0.00 | 0.00 | 0.00 | 29 | 1022.8 |
| 20260502123508 | 73 | 110 | 0.0 | 4.0 | 0.00 | 0.00 | 0.00 | 34 | 1023.2 |
| 20260502123014 | 74 | 81 | 1.0 | 6.0 | 0.00 | 0.00 | 0.00 | 37 | 1023.3 |
| 20260502122507 | 73 | 108 | 1.0 | 6.0 | 0.00 | 0.00 | 0.00 | 33 | 1023.3 |
| 20260502122010 | 73 | 303 | 0.0 | 4.0 | 0.00 | 0.00 | 0.00 | 34 | 1023.4 |
| 20260502121510 | 73 | 42 | 1.0 | 6.0 | 0.00 | 0.00 | 0.00 | 33 | 1023.5 |
| 20260502121005 | 73 | 214 | 0.0 | 6.0 | 0.00 | 0.00 | 0.00 | 36 | 1023.5 |
| 20260502120504 | 73 | 112 | 1.0 | 4.0 | 0.00 | 0.00 | 0.00 | 30 | 1023.6 |
| 20260502115506 | 73 | 120 | 0.0 | 4.0 | 0.00 | 0.00 | 0.00 | 31 | 1023.6 |
| 20260502115003 | 72 | 120 | 2.0 | 5.0 | 0.00 | 0.00 | 0.00 | 35 | 1023.8 |
| 20260502114501 | 73 | 31 | 2.0 | 5.0 | 0.00 | 0.00 | 0.00 | 31 | 1023.8 |
| 20260502114057 | 72 | 110 | 1.0 | 6.0 | 0.00 | 0.00 | 0.00 | 35 | 1023.9 |
| 20260502113556 | 72 | 83 | 1.0 | 6.0 | 0.00 | 0.00 | 0.00 | 32 | 1024.0 |
| 20260502113056 | 71 | 56 | 0.0 | 4.0 | 0.00 | 0.00 | 0.00 | 32 | 1024.0 |
| 20260502112555 | 71 | 112 | 1.0 | 5.0 | 0.00 | 0.00 | 0.00 | 32 | 1024.1 |
| 20260502112054 | 71 | 96 | 1.0 | 5.0 | 0.00 | 0.00 | 0.00 | 32 | 1024.1 |
| 20260502111556 | 71 | 106 | 0.0 | 4.0 | 0.00 | 0.00 | 0.00 | 29 | 1024.3 |
| 20260502111053 | 71 | 120 | 1.0 | 4.0 | 0.00 | 0.00 | 0.00 | 30 | 1024.4 |
| 20260502110553 | 71 | 62 | 1.0 | 3.0 | 0.00 | 0.00 | 0.00 | 31 | 1024.4 |
| 20260502110009 | 71 | 115 | 0.0 | 4.0 | 0.00 | 0.00 | 0.00 | 28 | 1024.5 |
| 20260502105509 | 71 | 84 | 1.0 | 4.0 | 0.00 | 0.00 | 0.00 | 33 | 1024.5 |
| 20260502105007 | 71 | 118 | 0.0 | 3.0 | 0.00 | 0.00 | 0.00 | 31 | 1024.5 |
| 20260502104506 | 71 | 348 | 1.0 | 3.0 | 0.00 | 0.00 | 0.00 | 32 | 1024.7 |
| 20260502104004 | 70 | 91 | 0.0 | 3.0 | 0.00 | 0.00 | 0.00 | 32 | 1024.7 |
| 20260502103503 | 70 | 29 | 1.0 | 4.0 | 0.00 | 0.00 | 0.00 | 32 | 1024.8 |
| 20260502103002 | 70 | 76 | 0.0 | 3.0 | 0.00 | 0.00 | 0.00 | 36 | 1024.9 |
| 20260502102502 | 70 | 105 | 1.0 | 3.0 | 0.00 | 0.00 | 0.00 | 33 | 1025.0 |
| 20260502102002 | 70 | 85 | 0.0 | 3.0 | 0.00 | 0.00 | 0.00 | 34 | 1025.1 |
| 20260502101626 | 70 | 103 | 0.0 | 3.0 | 0.00 | 0.00 | 0.00 | 37 | 1025.1 |
| 20260502101058 | 69 | 115 | 1.0 | 3.0 | 0.00 | 0.00 | 0.00 | 36 | 1025.1 |
| 20260502100558 | 69 | 10 | 0.0 | 6.0 | 0.00 | 0.00 | 0.00 | 35 | 1025.2 |
| 20260502091505 | 67 | 105 | 0.0 | 2.0 | 0.00 | 0.00 | 0.00 | 43 | 1025.8 |
| 20260502091004 | 68 | 113 | 0.0 | 4.0 | 0.00 | 0.00 | 0.00 | 44 | 1025.8 |
| 20260502090504 | 67 | 114 | 2.0 | 4.0 | 0.00 | 0.00 | 0.00 | 42 | 1025.8 |
| 20260502071502 | 58 | 108 | 1.0 | 3.0 | 0.00 | 0.00 | 0.00 | 63 | 1026.7 |
| 20260502071100 | 57 | 111 | 0.0 | 3.0 | 0.00 | 0.00 | 0.00 | 65 | 1026.7 |
| 20260502070559 | 56 | 111 | 0.0 | 3.0 | 0.00 | 0.00 | 0.00 | 66 | 1026.8 |
| 20260502070123 | 56 | 109 | 0.0 | 0.0 | 0.00 | 0.00 | 0.00 | 68 | 1026.8 |
| 20260502065557 | 55 | 109 | 0.0 | 0.0 | 0.00 | 0.00 | 0.00 | 70 | 1026.8 |
| 20260502065055 | 55 | 109 | 0.0 | 2.0 | 0.00 | 0.00 | 0.00 | 69 | 1026.8 |
| 20260502064556 | 54 | 109 | 0.0 | 3.0 | 0.00 | 0.00 | 0.00 | 71 | 1026.8 |
| 20260502064154 | 54 | 103 | 1.0 | 3.0 | 0.00 | 0.00 | 0.00 | 70 | 1026.8 |
| 20260502063550 | 53 | 236 | 0.0 | 1.0 | 0.00 | 0.00 | 0.00 | 73 | 1026.9 |
| 20260502063057 | 53 | 243 | 0.0 | 0.0 | 0.00 | 0.00 | 0.00 | 74 | 1026.9 |
| 20260502062548 | 51 | 243 | 0.0 | 0.0 | 0.00 | 0.00 | 0.00 | 76 | 1026.9 |
| 20260502062047 | 50 | 243 | 0.0 | 1.0 | 0.00 | 0.00 | 0.00 | 78 | 1027.0 |
| 20260502061544 | 49 | 243 | 0.0 | 1.0 | 0.00 | 0.00 | 0.00 | 79 | 1026.9 |
| 20260502061044 | 48 | 243 | 0.0 | 0.0 | 0.00 | 0.00 | 0.00 | 81 | 1026.9 |
| 20260502060542 | 47 | 244 | 0.0 | 1.0 | 0.00 | 0.00 | 0.00 | 82 | 1026.9 |
| 20260502060041 | 47 | 247 | 0.0 | 1.0 | 0.00 | 0.00 | 0.00 | 82 | 1026.8 |
| 20260502055543 | 47 | 247 | 0.0 | 0.0 | 0.00 | 0.00 | 0.00 | 83 | 1026.9 |
| 20260502055040 | 46 | 247 | 0.0 | 0.0 | 0.00 | 0.00 | 0.00 | 85 | 1026.8 |
| 20260502054542 | 45 | 247 | 0.0 | 0.0 | 0.00 | 0.00 | 0.00 | 85 | 1026.9 |
| 20260502054039 | 45 | 247 | 0.0 | 0.0 | 0.00 | 0.00 | 0.00 | 86 | 1026.9 |
| 20260502053538 | 44 | 247 | 0.0 | 0.0 | 0.00 | 0.00 | 0.00 | 87 | 1027.0 |
| 20260502053038 | 43 | 247 | 0.0 | 1.0 | 0.00 | 0.00 | 0.00 | 88 | 1026.9 |
| 20260502052537 | 42 | 249 | 0.0 | 1.0 | 0.00 | 0.00 | 0.00 | 88 | 1026.9 |
| 20260502052037 | 42 | 248 | 0.0 | 1.0 | 0.00 | 0.00 | 0.00 | 88 | 1026.9 |
| 20260502051548 | 42 | 249 | 0.0 | 2.0 | 0.00 | 0.00 | 0.00 | 88 | 1026.9 |
| 20260502051036 | 42 | 247 | 0.0 | 2.0 | 0.00 | 0.00 | 0.00 | 89 | 1026.9 |
| 20260502050536 | 41 | 247 | 0.0 | 0.0 | 0.00 | 0.00 | 0.00 | 89 | 1026.9 |
| 20260502050036 | 41 | 246 | 0.0 | 0.0 | 0.00 | 0.00 | 0.00 | 89 | 1026.9 |
| 20260502045538 | 40 | 247 | 0.0 | 0.0 | 0.00 | 0.00 | 0.00 | 89 | 1026.8 |
| 20260502045035 | 40 | 246 | 0.0 | 0.0 | 0.00 | 0.00 | 0.00 | 89 | 1026.8 |
| 20260502044534 | 40 | 246 | 0.0 | 0.0 | 0.00 | 0.00 | 0.00 | 89 | 1026.8 |
| 20260502044034 | 39 | 246 | 0.0 | 0.0 | 0.00 | 0.00 | 0.00 | 89 | 1026.8 |
| 20260502043533 | 39 | 246 | 0.0 | 0.0 | 0.00 | 0.00 | 0.00 | 89 | 1026.8 |
| 20260502043033 | 39 | 246 | 0.0 | 0.0 | 0.00 | 0.00 | 0.00 | 89 | 1026.9 |
| 20260502042533 | 39 | 246 | 0.0 | 0.0 | 0.00 | 0.00 | 0.00 | 89 | 1026.8 |
| 20260502042033 | 39 | 246 | 0.0 | 0.0 | 0.00 | 0.00 | 0.00 | 89 | 1026.8 |
| 20260502041535 | 39 | 245 | 0.0 | 0.0 | 0.00 | 0.00 | 0.00 | 89 | 1026.8 |
| 20260502041031 | 39 | 246 | 0.0 | 0.0 | 0.00 | 0.00 | 0.00 | 89 | 1026.8 |
| 20260502040534 | 39 | 246 | 0.0 | 0.0 | 0.00 | 0.00 | 0.00 | 89 | 1026.8 |
| 20260502040031 | 39 | 246 | 0.0 | 0.0 | 0.00 | 0.00 | 0.00 | 88 | 1026.9 |
| 20260502035531 | 39 | 246 | 0.0 | 0.0 | 0.00 | 0.00 | 0.00 | 88 | 1026.9 |
| 20260502035029 | 39 | 245 | 0.0 | 0.0 | 0.00 | 0.00 | 0.00 | 88 | 1026.7 |
| 20260502034530 | 39 | 246 | 0.0 | 0.0 | 0.00 | 0.00 | 0.00 | 88 | 1026.8 |
| 20260502034032 | 39 | 246 | 0.0 | 0.0 | 0.00 | 0.00 | 0.00 | 88 | 1026.8 |
| 20260502033528 | 39 | 246 | 0.0 | 0.0 | 0.00 | 0.00 | 0.00 | 88 | 1026.8 |
| 20260502033029 | 39 | 245 | 0.0 | 0.0 | 0.00 | 0.00 | 0.00 | 88 | 1026.8 |
| 20260502032528 | 40 | 245 | 0.0 | 0.0 | 0.00 | 0.00 | 0.00 | 88 | 1026.8 |
| 20260502032027 | 39 | 245 | 0.0 | 0.0 | 0.00 | 0.00 | 0.00 | 88 | 1026.9 |
| 20260502031527 | 39 | 245 | 0.0 | 0.0 | 0.00 | 0.00 | 0.00 | 88 | 1026.9 |
| 20260502031027 | 39 | 245 | 0.0 | 0.0 | 0.00 | 0.00 | 0.00 | 88 | 1026.9 |
| 20260502030527 | 39 | 245 | 0.0 | 0.0 | 0.00 | 0.00 | 0.00 | 88 | 1026.9 |
| 20260502030027 | 39 | 246 | 0.0 | 0.0 | 0.00 | 0.00 | 0.00 | 87 | 1026.9 |
| 20260502025526 | 39 | 246 | 0.0 | 0.0 | 0.00 | 0.00 | 0.00 | 87 | 1026.9 |
| 20260502025025 | 39 | 246 | 0.0 | 0.0 | 0.00 | 0.00 | 0.00 | 87 | 1026.9 |
| 20260502024530 | 39 | 246 | 0.0 | 0.0 | 0.00 | 0.00 | 0.00 | 87 | 1026.9 |
| 20260502024025 | 39 | 246 | 0.0 | 0.0 | 0.00 | 0.00 | 0.00 | 87 | 1027.0 |
| 20260502023524 | 40 | 246 | 0.0 | 0.0 | 0.00 | 0.00 | 0.00 | 87 | 1027.0 |
| 20260502023024 | 40 | 247 | 0.0 | 0.0 | 0.00 | 0.00 | 0.00 | 87 | 1027.0 |
| 20260502022523 | 40 | 246 | 0.0 | 0.0 | 0.00 | 0.00 | 0.00 | 87 | 1027.0 |
| 20260502022023 | 40 | 246 | 0.0 | 0.0 | 0.00 | 0.00 | 0.00 | 87 | 1027.0 |
| 20260502021522 | 40 | 245 | 0.0 | 0.0 | 0.00 | 0.00 | 0.00 | 86 | 1027.0 |
| 20260502021022 | 40 | 245 | 0.0 | 0.0 | 0.00 | 0.00 | 0.00 | 87 | 1027.0 |
| 20260502020522 | 40 | 245 | 0.0 | 0.0 | 0.00 | 0.00 | 0.00 | 87 | 1027.0 |
| 20260502020021 | 41 | 247 | 0.0 | 0.0 | 0.00 | 0.00 | 0.00 | 86 | 1027.0 |
| 20260502015520 | 41 | 247 | 0.0 | 0.0 | 0.00 | 0.00 | 0.00 | 86 | 1027.0 |
| 20260502015020 | 41 | 247 | 0.0 | 0.0 | 0.00 | 0.00 | 0.00 | 86 | 1027.1 |
| 20260502014520 | 41 | 247 | 0.0 | 0.0 | 0.00 | 0.00 | 0.00 | 86 | 1027.1 |
| 20260502014018 | 41 | 247 | 0.0 | 0.0 | 0.00 | 0.00 | 0.00 | 85 | 1027.1 |
| 20260502013517 | 41 | 247 | 0.0 | 0.0 | 0.00 | 0.00 | 0.00 | 86 | 1027.1 |
| 20260502013017 | 41 | 247 | 0.0 | 0.0 | 0.00 | 0.00 | 0.00 | 85 | 1027.2 |
| 20260502012516 | 42 | 247 | 0.0 | 0.0 | 0.00 | 0.00 | 0.00 | 85 | 1027.2 |
| 20260502012015 | 42 | 247 | 0.0 | 0.0 | 0.00 | 0.00 | 0.00 | 85 | 1027.2 |
| 20260502011522 | 42 | 248 | 0.0 | 0.0 | 0.00 | 0.00 | 0.00 | 84 | 1027.2 |
| 20260502011013 | 42 | 248 | 0.0 | 0.0 | 0.00 | 0.00 | 0.00 | 85 | 1027.3 |
| 20260502010512 | 42 | 248 | 0.0 | 0.0 | 0.00 | 0.00 | 0.00 | 84 | 1027.2 |
| 20260502010015 | 42 | 247 | 0.0 | 0.0 | 0.00 | 0.00 | 0.00 | 84 | 1027.3 |
| 20260502005512 | 43 | 247 | 0.0 | 0.0 | 0.00 | 0.00 | 0.00 | 84 | 1027.4 |
| 20260502005011 | 43 | 247 | 0.0 | 0.0 | 0.00 | 0.00 | 0.00 | 84 | 1027.4 |
| 20260502004510 | 43 | 247 | 0.0 | 0.0 | 0.00 | 0.00 | 0.00 | 84 | 1027.4 |
| 20260502004011 | 43 | 247 | 0.0 | 0.0 | 0.00 | 0.00 | 0.00 | 84 | 1027.4 |
| 20260502003507 | 43 | 247 | 0.0 | 0.0 | 0.00 | 0.00 | 0.00 | 83 | 1027.4 |
| 20260502003008 | 43 | 247 | 0.0 | 0.0 | 0.00 | 0.00 | 0.00 | 83 | 1027.5 |
| 20260502002507 | 43 | 247 | 0.0 | 0.0 | 0.00 | 0.00 | 0.00 | 83 | 1027.5 |
| 20260502002007 | 43 | 247 | 0.0 | 0.0 | 0.00 | 0.00 | 0.00 | 83 | 1027.5 |
| 20260502001506 | 44 | 247 | 0.0 | 0.0 | 0.00 | 0.00 | 0.00 | 82 | 1027.5 |
| 20260502001006 | 44 | 247 | 0.0 | 0.0 | 0.00 | 0.00 | 0.00 | 82 | 1027.5 |
| 20260502000505 | 44 | 248 | 0.0 | 0.0 | 0.00 | 0.00 | 0.00 | 82 | 1027.5 |
| 20260502000005 | 44 | 248 | 0.0 | 0.0 | 0.00 | 0.00 | 0.00 | 82 | 1027.5 |
| 20260501235506 | 44 | 247 | 0.0 | 0.0 | 0.00 | 0.00 | 0.00 | 82 | 1027.5 |
| 20260501235003 | 44 | 249 | 0.0 | 0.0 | 0.00 | 0.00 | 0.00 | 82 | 1027.6 |
| 20260501234503 | 44 | 250 | 0.0 | 0.0 | 0.00 | 0.00 | 0.00 | 81 | 1027.6 |
| 20260501234002 | 44 | 249 | 0.0 | 0.0 | 0.00 | 0.00 | 0.00 | 81 | 1027.6 |
| 20260501233502 | 45 | 249 | 0.0 | 0.0 | 0.00 | 0.00 | 0.00 | 81 | 1027.6 |
| 20260501233004 | 45 | 249 | 0.0 | 0.0 | 0.00 | 0.00 | 0.00 | 81 | 1027.7 |
| 20260501232603 | 45 | 249 | 0.0 | 0.0 | 0.00 | 0.00 | 0.00 | 80 | 1027.7 |
| 20260501232100 | 45 | 249 | 0.0 | 0.0 | 0.00 | 0.00 | 0.00 | 80 | 1027.7 |
| 20260501231558 | 45 | 248 | 0.0 | 0.0 | 0.00 | 0.00 | 0.00 | 80 | 1027.7 |
| 20260501231059 | 46 | 249 | 0.0 | 0.0 | 0.00 | 0.00 | 0.00 | 79 | 1027.7 |
| 20260501230600 | 46 | 250 | 0.0 | 0.0 | 0.00 | 0.00 | 0.00 | 79 | 1027.6 |
| 20260501230504 | 46 | 249 | 0.0 | 0.0 | 0.00 | 0.00 | 0.00 | 79 | 1027.6 |
| 20260501230156 | 46 | 249 | 0.0 | 0.0 | 0.00 | 0.00 | 0.00 | 79 | 1027.7 |
| 20260501225551 | 46 | 249 | 0.0 | 0.0 | 0.00 | 0.00 | 0.00 | 78 | 1027.6 |
| 20260501225050 | 46 | 249 | 0.0 | 0.0 | 0.00 | 0.00 | 0.00 | 79 | 1027.7 |
| 20260501224550 | 46 | 250 | 0.0 | 0.0 | 0.00 | 0.00 | 0.00 | 79 | 1027.7 |
| 20260501224049 | 46 | 250 | 0.0 | 0.0 | 0.00 | 0.00 | 0.00 | 78 | 1027.7 |
| 20260501223544 | 47 | 251 | 0.0 | 0.0 | 0.00 | 0.00 | 0.00 | 78 | 1027.8 |
| 20260501223043 | 47 | 252 | 0.0 | 0.0 | 0.00 | 0.00 | 0.00 | 78 | 1027.8 |
| 20260501222542 | 47 | 251 | 0.0 | 0.0 | 0.00 | 0.00 | 0.00 | 77 | 1027.7 |
| 20260501222041 | 47 | 250 | 0.0 | 0.0 | 0.00 | 0.00 | 0.00 | 77 | 1027.7 |
| 20260501221540 | 47 | 251 | 0.0 | 0.0 | 0.00 | 0.00 | 0.00 | 77 | 1027.8 |
| 20260501221040 | 47 | 251 | 0.0 | 0.0 | 0.00 | 0.00 | 0.00 | 77 | 1027.8 |
| 20260501220539 | 48 | 251 | 0.0 | 0.0 | 0.00 | 0.00 | 0.00 | 77 | 1027.8 |
| 20260501220140 | 48 | 251 | 0.0 | 0.0 | 0.00 | 0.00 | 0.00 | 76 | 1027.8 |
| 20260501215542 | 48 | 249 | 0.0 | 0.0 | 0.00 | 0.00 | 0.00 | 76 | 1027.8 |
| 20260501215042 | 48 | 249 | 0.0 | 0.0 | 0.00 | 0.00 | 0.00 | 76 | 1027.7 |
| 20260501214542 | 48 | 249 | 0.0 | 0.0 | 0.00 | 0.00 | 0.00 | 75 | 1027.7 |
| 20260501214041 | 49 | 249 | 0.0 | 0.0 | 0.00 | 0.00 | 0.00 | 74 | 1027.7 |
| 20260501213542 | 49 | 249 | 0.0 | 0.0 | 0.00 | 0.00 | 0.00 | 74 | 1027.8 |
| 20260501213042 | 49 | 249 | 0.0 | 0.0 | 0.00 | 0.00 | 0.00 | 74 | 1027.7 |
| 20260501212541 | 49 | 249 | 0.0 | 0.0 | 0.00 | 0.00 | 0.00 | 73 | 1027.8 |
| 20260501212040 | 50 | 249 | 0.0 | 0.0 | 0.00 | 0.00 | 0.00 | 73 | 1027.8 |
| 20260501211541 | 50 | 5 | 0.0 | 0.0 | 0.00 | 0.00 | 0.00 | 72 | 1027.9 |
| 20260501211041 | 50 | 250 | 0.0 | 0.0 | 0.00 | 0.00 | 0.00 | 72 | 1027.8 |
| 20260501210540 | 50 | 5 | 0.0 | 0.0 | 0.00 | 0.00 | 0.00 | 72 | 1027.8 |
| 20260501210143 | 50 | 5 | 0.0 | 0.0 | 0.00 | 0.00 | 0.00 | 72 | 1027.8 |
| 20260501205550 | 50 | 5 | 0.0 | 0.0 | 0.00 | 0.00 | 0.00 | 72 | 1027.8 |
| 20260501205048 | 50 | 251 | 0.0 | 0.0 | 0.00 | 0.00 | 0.00 | 71 | 1027.9 |
| 20260501204549 | 51 | 5 | 0.0 | 0.0 | 0.00 | 0.00 | 0.00 | 71 | 1027.9 |
| 20260501204046 | 51 | 249 | 0.0 | 0.0 | 0.00 | 0.00 | 0.00 | 70 | 1027.9 |
| 20260501203545 | 51 | 249 | 0.0 | 0.0 | 0.00 | 0.00 | 0.00 | 70 | 1027.8 |
| 20260501203045 | 51 | 5 | 0.0 | 0.0 | 0.00 | 0.00 | 0.00 | 70 | 1027.8 |
| 20260501202545 | 52 | 249 | 0.0 | 0.0 | 0.00 | 0.00 | 0.00 | 69 | 1027.9 |
| 20260501202146 | 52 | 249 | 0.0 | 0.0 | 0.00 | 0.00 | 0.00 | 68 | 1027.8 |
| 20260501201545 | 52 | 247 | 0.0 | 0.0 | 0.00 | 0.00 | 0.00 | 68 | 1027.8 |
| 20260501201045 | 52 | 247 | 0.0 | 0.0 | 0.00 | 0.00 | 0.00 | 67 | 1027.8 |
| 20260501200548 | 52 | 247 | 0.0 | 0.0 | 0.00 | 0.00 | 0.00 | 67 | 1027.8 |
| 20260501200144 | 53 | 247 | 0.0 | 0.0 | 0.00 | 0.00 | 0.00 | 67 | 1027.7 |
| 20260501195551 | 53 | 247 | 0.0 | 0.0 | 0.00 | 0.00 | 0.00 | 66 | 1027.9 |
| 20260501195052 | 54 | 246 | 0.0 | 0.0 | 0.00 | 0.00 | 0.00 | 65 | 1027.8 |
| 20260501194551 | 54 | 245 | 0.0 | 0.0 | 0.00 | 0.00 | 0.00 | 65 | 1027.7 |
| 20260501194052 | 54 | 245 | 0.0 | 0.0 | 0.00 | 0.00 | 0.00 | 66 | 1027.8 |
| 20260501193549 | 54 | 244 | 0.0 | 0.0 | 0.00 | 0.00 | 0.00 | 66 | 1027.8 |
| 20260501193050 | 54 | 244 | 0.0 | 1.0 | 0.00 | 0.00 | 0.00 | 66 | 1027.8 |
| 20260501192549 | 54 | 243 | 0.0 | 1.0 | 0.00 | 0.00 | 0.00 | 66 | 1027.8 |
| 20260501192049 | 54 | 243 | 0.0 | 0.0 | 0.00 | 0.00 | 0.00 | 65 | 1027.8 |
| 20260501191557 | 54 | 243 | 0.0 | 0.0 | 0.00 | 0.00 | 0.00 | 65 | 1027.8 |
| 20260501191049 | 55 | 243 | 0.0 | 0.0 | 0.00 | 0.00 | 0.00 | 63 | 1027.7 |
| 20260501190549 | 56 | 242 | 0.0 | 0.0 | 0.00 | 0.00 | 0.00 | 62 | 1027.7 |
| 20260501190148 | 56 | 242 | 0.0 | 0.0 | 0.00 | 0.00 | 0.00 | 62 | 1027.7 |
| 20260501185540 | 56 | 242 | 0.0 | 0.0 | 0.00 | 0.00 | 0.00 | 61 | 1027.6 |
| 20260501185041 | 56 | 243 | 0.0 | 0.0 | 0.00 | 0.00 | 0.00 | 61 | 1027.6 |
| 20260501184540 | 57 | 243 | 0.0 | 0.0 | 0.00 | 0.00 | 0.00 | 60 | 1027.6 |
| 20260501184042 | 57 | 243 | 0.0 | 0.0 | 0.00 | 0.00 | 0.00 | 59 | 1027.5 |
| 20260501183540 | 58 | 250 | 0.0 | 0.0 | 0.00 | 0.00 | 0.00 | 58 | 1027.6 |
| 20260501183056 | 58 | 242 | 0.0 | 0.0 | 0.00 | 0.00 | 0.00 | 58 | 1027.5 |
| 20260501182539 | 58 | 242 | 0.0 | 0.0 | 0.00 | 0.00 | 0.00 | 57 | 1027.5 |
| 20260501182042 | 58 | 241 | 0.0 | 0.0 | 0.00 | 0.00 | 0.00 | 58 | 1027.4 |
| 20260501181557 | 59 | 241 | 0.0 | 0.0 | 0.00 | 0.00 | 0.00 | 57 | 1027.5 |
| 20260501181039 | 60 | 241 | 0.0 | 0.0 | 0.00 | 0.00 | 0.00 | 56 | 1027.4 |
| 20260501180539 | 60 | 241 | 0.0 | 0.0 | 0.00 | 0.00 | 0.00 | 54 | 1027.4 |
| 20260501180139 | 61 | 241 | 0.0 | 0.0 | 0.00 | 0.00 | 0.00 | 53 | 1027.4 |
| 20260501175516 | 62 | 241 | 0.0 | 0.0 | 0.00 | 0.00 | 0.00 | 51 | 1027.4 |
| 20260501175019 | 63 | 241 | 0.0 | 0.0 | 0.00 | 0.00 | 0.00 | 51 | 1027.4 |
| 20260501174516 | 63 | 241 | 0.0 | 1.0 | 0.00 | 0.00 | 0.00 | 49 | 1027.4 |
| 20260501174015 | 64 | 241 | 0.0 | 1.0 | 0.00 | 0.00 | 0.00 | 47 | 1027.3 |
| 20260501173511 | 65 | 241 | 0.0 | 2.0 | 0.00 | 0.00 | 0.00 | 46 | 1027.3 |
| 20260501173012 | 65 | 241 | 0.0 | 2.0 | 0.00 | 0.00 | 0.00 | 46 | 1027.3 |
| 20260501172513 | 66 | 241 | 0.0 | 4.0 | 0.00 | 0.00 | 0.00 | 44 | 1027.3 |
| 20260501172011 | 66 | 56 | 1.0 | 4.0 | 0.00 | 0.00 | 0.00 | 45 | 1027.3 |
| 20260501171516 | 66 | 213 | 0.0 | 3.0 | 0.00 | 0.00 | 0.00 | 44 | 1027.3 |
| 20260501171010 | 66 | 226 | 0.0 | 2.0 | 0.00 | 0.00 | 0.00 | 44 | 1027.3 |
| 20260501170510 | 66 | 226 | 0.0 | 2.0 | 0.00 | 0.00 | 0.00 | 43 | 1027.4 |
| 20260501165555 | 67 | 221 | 0.0 | 4.0 | 0.00 | 0.00 | 0.00 | 43 | 1027.4 |
| 20260501165055 | 67 | 222 | 1.0 | 4.0 | 0.00 | 0.00 | 0.00 | 43 | 1027.4 |
| 20260501164555 | 67 | 51 | 0.0 | 2.0 | 0.00 | 0.00 | 0.00 | 42 | 1027.5 |
| 20260501164054 | 67 | 10 | 0.0 | 3.0 | 0.00 | 0.00 | 0.00 | 41 | 1027.5 |
| 20260501163554 | 67 | 10 | 0.0 | 3.0 | 0.00 | 0.00 | 0.00 | 42 | 1027.5 |
| 20260501163057 | 67 | 18 | 0.0 | 3.0 | 0.00 | 0.00 | 0.00 | 42 | 1027.5 |
| 20260501162553 | 68 | 51 | 1.0 | 3.0 | 0.00 | 0.00 | 0.00 | 40 | 1027.6 |
| 20260501162056 | 68 | 339 | 0.0 | 3.0 | 0.00 | 0.00 | 0.00 | 41 | 1027.6 |
| 20260501161556 | 68 | 252 | 0.0 | 3.0 | 0.00 | 0.00 | 0.00 | 42 | 1027.6 |
| 20260501161056 | 68 | 280 | 0.0 | 4.0 | 0.00 | 0.00 | 0.00 | 40 | 1027.6 |
| 20260501160551 | 68 | 234 | 1.0 | 4.0 | 0.00 | 0.00 | 0.00 | 41 | 1027.7 |
| 20260501160113 | 68 | 54 | 1.0 | 5.0 | 0.00 | 0.00 | 0.00 | 42 | 1027.8 |
| 20260501155551 | 68 | 216 | 1.0 | 5.0 | 0.00 | 0.00 | 0.00 | 40 | 1027.8 |
| 20260501155050 | 69 | 321 | 0.0 | 4.0 | 0.00 | 0.00 | 0.00 | 40 | 1027.8 |
| 20260501154555 | 68 | 289 | 0.0 | 5.0 | 0.00 | 0.00 | 0.00 | 40 | 1027.8 |
| 20260501154150 | 68 | 311 | 1.0 | 4.0 | 0.00 | 0.00 | 0.00 | 42 | 1027.9 |
| 20260501153549 | 68 | 263 | 0.0 | 3.0 | 0.00 | 0.00 | 0.00 | 39 | 1027.8 |
| 20260501153049 | 68 | 79 | 0.0 | 3.0 | 0.00 | 0.00 | 0.00 | 39 | 1027.9 |
| 20260501152551 | 69 | 343 | 0.0 | 3.0 | 0.00 | 0.00 | 0.00 | 43 | 1027.9 |
| 20260501152048 | 68 | 100 | 0.0 | 3.0 | 0.00 | 0.00 | 0.00 | 41 | 1028.0 |
| 20260501151550 | 68 | 248 | 1.0 | 3.0 | 0.00 | 0.00 | 0.00 | 40 | 1028.1 |
| 20260501151046 | 68 | 279 | 0.0 | 3.0 | 0.00 | 0.00 | 0.00 | 41 | 1028.1 |
| 20260501150545 | 68 | 120 | 0.0 | 3.0 | 0.00 | 0.00 | 0.00 | 40 | 1028.3 |
| 20260501150051 | 68 | 119 | 0.0 | 3.0 | 0.00 | 0.00 | 0.00 | 42 | 1028.3 |